createdAt,value
2023-02-09T00:00:14.621Z,0.00
2023-02-09T00:01:14.957Z,0.00
2023-02-09T00:02:15.396Z,0.00
2023-02-09T00:03:15.666Z,0.00
2023-02-09T00:04:15.921Z,0.00
2023-02-09T00:05:16.154Z,0.00
2023-02-09T00:06:16.442Z,0.00
2023-02-09T00:07:16.767Z,0.00
2023-02-09T00:08:17.048Z,1.00
2023-02-09T00:09:17.368Z,0.00
2023-02-09T00:10:17.696Z,0.00
2023-02-09T00:11:17.861Z,1.00
2023-02-09T00:12:18.266Z,0.00
2023-02-09T00:13:18.477Z,0.00
2023-02-09T00:14:21.570Z,0.00
2023-02-09T00:15:19.095Z,0.00
2023-02-09T00:16:19.386Z,0.00
2023-02-09T00:17:19.665Z,0.00
2023-02-09T00:18:20.075Z,0.00
2023-02-09T00:19:20.271Z,1.00
2023-02-09T00:20:20.570Z,0.00
2023-02-09T00:21:20.841Z,0.00
2023-02-09T00:22:21.047Z,0.00
2023-02-09T00:23:21.369Z,0.00
2023-02-09T00:24:21.649Z,0.00
2023-02-09T00:25:21.918Z,0.00
2023-02-09T00:26:22.166Z,0.00
2023-02-09T00:27:22.520Z,0.00
2023-02-09T00:28:22.838Z,0.00
2023-02-09T00:29:23.048Z,0.00
2023-02-09T00:30:23.405Z,1.00
2023-02-09T00:31:23.867Z,0.00
2023-02-09T00:32:24.132Z,0.00
2023-02-09T00:33:24.324Z,0.00
2023-02-09T00:34:24.665Z,0.00
2023-02-09T00:35:24.824Z,0.00
2023-02-09T00:36:25.111Z,0.00
2023-02-09T00:37:25.430Z,0.00
2023-02-09T00:38:25.809Z,0.00
2023-02-09T00:39:26.006Z,0.00
2023-02-09T00:40:26.367Z,0.00
2023-02-09T00:41:26.662Z,0.00
2023-02-09T00:42:26.902Z,0.00
2023-02-09T00:43:27.134Z,0.00
2023-02-09T00:44:27.504Z,0.00
2023-02-09T00:45:27.823Z,1.00
2023-02-09T00:46:28.105Z,0.00
2023-02-09T00:47:28.357Z,0.00
2023-02-09T00:48:28.721Z,1.00
2023-02-09T00:49:29.044Z,0.00
2023-02-09T00:50:29.269Z,0.00
2023-02-09T00:51:29.565Z,1.00
2023-02-09T00:52:29.811Z,0.00
2023-02-09T00:53:29.977Z,1.00
2023-02-09T00:54:30.345Z,0.00
2023-02-09T00:55:30.641Z,0.00
2023-02-09T00:56:31.023Z,0.00
2023-02-09T00:57:31.209Z,0.00
2023-02-09T00:58:31.557Z,0.00
2023-02-09T00:59:31.803Z,0.00
2023-02-09T01:00:32.156Z,0.00
2023-02-09T01:01:32.571Z,0.00
2023-02-09T01:02:32.745Z,0.00
2023-02-09T01:03:33.049Z,0.00
2023-02-09T01:04:33.394Z,0.00
2023-02-09T01:05:33.635Z,0.00
2023-02-09T01:06:33.965Z,0.00
2023-02-09T01:07:34.119Z,0.00
2023-02-09T01:08:34.487Z,0.00
2023-02-09T01:09:34.793Z,0.00
2023-02-09T01:10:35.171Z,0.00
2023-02-09T01:11:35.347Z,0.00
2023-02-09T01:12:35.636Z,0.00
2023-02-09T01:13:35.841Z,0.00
2023-02-09T01:14:36.156Z,0.00
2023-02-09T01:15:36.500Z,0.00
2023-02-09T01:16:36.874Z,0.00
2023-02-09T01:17:37.041Z,0.00
2023-02-09T01:18:37.390Z,0.00
2023-02-09T01:19:37.690Z,0.00
2023-02-09T01:20:38.037Z,0.00
2023-02-09T01:21:38.365Z,0.00
2023-02-09T01:22:38.700Z,0.00
2023-02-09T01:23:39.022Z,0.00
2023-02-09T01:24:39.366Z,0.00
2023-02-09T01:25:39.652Z,0.00
2023-02-09T01:26:40.020Z,0.00
2023-02-09T01:27:40.219Z,0.00
2023-02-09T01:28:40.549Z,0.00
2023-02-09T01:29:40.870Z,0.00
2023-02-09T01:30:41.309Z,0.00
2023-02-09T01:31:41.579Z,0.00
2023-02-09T01:32:41.770Z,0.00
2023-02-09T01:33:42.079Z,0.00
2023-02-09T01:34:42.428Z,0.00
2023-02-09T01:35:43.109Z,0.00
2023-02-09T01:36:42.996Z,0.00
2023-02-09T01:37:43.246Z,0.00
2023-02-09T01:38:43.589Z,0.00
2023-02-09T01:39:43.908Z,0.00
2023-02-09T01:40:44.639Z,0.00
2023-02-09T01:41:44.499Z,0.00
2023-02-09T01:42:44.754Z,0.00
2023-02-09T01:43:45.102Z,0.00
2023-02-09T01:44:45.410Z,0.00
2023-02-09T01:45:45.746Z,0.00
2023-02-09T01:46:46.099Z,0.00
2023-02-09T01:47:46.385Z,0.00
2023-02-09T01:48:46.641Z,0.00
2023-02-09T01:49:46.967Z,0.00
2023-02-09T01:50:47.454Z,0.00
2023-02-09T01:51:47.732Z,0.00
2023-02-09T01:52:47.815Z,0.00
2023-02-09T01:53:48.042Z,0.00
2023-02-09T01:54:48.231Z,0.00
2023-02-09T01:55:48.539Z,0.00
2023-02-09T01:56:48.858Z,0.00
2023-02-09T01:57:49.256Z,0.00
2023-02-09T01:58:49.470Z,0.00
2023-02-09T01:59:49.680Z,0.00
2023-02-09T02:00:49.983Z,0.00
2023-02-09T02:01:50.448Z,0.00
2023-02-09T02:02:50.625Z,0.00
2023-02-09T02:03:50.879Z,0.00
2023-02-09T02:04:51.220Z,0.00
2023-02-09T02:05:51.514Z,0.00
2023-02-09T02:06:51.852Z,0.00
2023-02-09T02:07:52.172Z,0.00
2023-02-09T02:08:52.484Z,0.00
2023-02-09T02:09:52.770Z,0.00
2023-02-09T02:10:53.129Z,0.00
2023-02-09T02:11:53.534Z,0.00
2023-02-09T02:12:53.736Z,0.00
2023-02-09T02:13:54.067Z,0.00
2023-02-09T02:14:54.463Z,0.00
2023-02-09T02:15:54.728Z,0.00
2023-02-09T02:16:54.890Z,0.00
2023-02-09T02:17:55.180Z,0.00
2023-02-09T02:18:55.607Z,0.00
2023-02-09T02:19:55.779Z,0.00
2023-02-09T02:20:56.162Z,0.00
2023-02-09T02:21:56.483Z,0.00
2023-02-09T02:22:56.780Z,0.00
2023-02-09T02:23:57.101Z,0.00
2023-02-09T02:24:57.438Z,0.00
2023-02-09T02:25:57.753Z,0.00
2023-02-09T02:26:58.064Z,0.00
2023-02-09T02:27:58.416Z,0.00
2023-02-09T02:28:58.618Z,0.00
2023-02-09T02:29:58.918Z,0.00
2023-02-09T02:30:59.717Z,0.00
2023-02-09T02:31:59.504Z,0.00
2023-02-09T02:32:59.850Z,0.00
2023-02-09T02:34:00.155Z,0.00
2023-02-09T02:35:00.449Z,0.00
2023-02-09T02:36:00.796Z,0.00
2023-02-09T02:37:01.160Z,0.00
2023-02-09T02:38:01.378Z,0.00
2023-02-09T02:39:01.674Z,0.00
2023-02-09T02:40:01.970Z,0.00
2023-02-09T02:41:02.306Z,0.00
2023-02-09T02:42:02.633Z,0.00
2023-02-09T02:43:02.947Z,0.00
2023-02-09T02:44:03.294Z,0.00
2023-02-09T02:45:04.500Z,0.00
2023-02-09T02:46:03.929Z,0.00
2023-02-09T02:47:04.268Z,0.00
2023-02-09T02:48:04.584Z,0.00
2023-02-09T02:49:04.946Z,0.00
2023-02-09T02:50:05.126Z,0.00
2023-02-09T02:51:05.480Z,0.00
2023-02-09T02:52:05.655Z,0.00
2023-02-09T02:53:06.049Z,0.00
2023-02-09T02:54:06.284Z,0.00
2023-02-09T02:55:06.579Z,0.00
2023-02-09T02:56:06.751Z,0.00
2023-02-09T02:57:07.113Z,0.00
2023-02-09T02:58:07.343Z,0.00
2023-02-09T02:59:07.655Z,0.00
2023-02-09T03:00:08.045Z,0.00
2023-02-09T03:01:08.228Z,0.00
2023-02-09T03:02:08.520Z,0.00
2023-02-09T03:03:08.912Z,0.00
2023-02-09T03:04:09.216Z,0.00
2023-02-09T03:05:09.616Z,0.00
2023-02-09T03:06:09.810Z,0.00
2023-02-09T03:07:10.131Z,0.00
2023-02-09T03:08:10.388Z,0.00
2023-02-09T03:09:10.749Z,0.00
2023-02-09T03:10:10.933Z,0.00
2023-02-09T03:11:11.248Z,0.00
2023-02-09T03:12:11.544Z,0.00
2023-02-09T03:13:11.898Z,0.00
2023-02-09T03:14:12.204Z,0.00
2023-02-09T03:15:12.601Z,0.00
2023-02-09T03:20:01.116Z,0.00
2023-02-09T03:21:01.314Z,0.00
2023-02-09T03:22:01.664Z,0.00
2023-02-09T03:23:01.934Z,0.00
2023-02-09T03:24:02.301Z,0.00
2023-02-09T03:25:02.633Z,0.00
2023-02-09T03:26:02.968Z,0.00
2023-02-09T03:27:03.267Z,0.00
2023-02-09T03:28:03.735Z,0.00
2023-02-09T03:29:03.931Z,0.00
2023-02-09T03:30:04.324Z,0.00
2023-02-09T03:31:04.627Z,0.00
2023-02-09T03:32:04.889Z,0.00
2023-02-09T03:33:05.243Z,0.00
2023-02-09T03:34:05.537Z,0.00
2023-02-09T03:35:05.781Z,0.00
2023-02-09T03:36:06.127Z,0.00
2023-02-09T03:37:06.471Z,0.00
2023-02-09T03:38:06.838Z,0.00
2023-02-09T03:39:07.000Z,0.00
2023-02-09T03:40:07.356Z,0.00
2023-02-09T03:41:08.116Z,0.00
2023-02-09T03:42:07.936Z,0.00
2023-02-09T03:43:08.580Z,0.00
2023-02-09T03:44:08.617Z,0.00
2023-02-09T03:45:08.818Z,0.00
2023-02-09T03:46:09.185Z,0.00
2023-02-09T03:47:09.401Z,0.00
2023-02-09T03:48:09.656Z,1.00
2023-02-09T03:49:09.980Z,0.00
2023-02-09T03:50:10.281Z,0.00
2023-02-09T03:51:10.456Z,0.00
2023-02-09T03:52:10.836Z,0.00
2023-02-09T03:53:11.021Z,0.00
2023-02-09T03:54:11.396Z,0.00
2023-02-09T03:55:11.710Z,0.00
2023-02-09T03:56:12.024Z,0.00
2023-02-09T03:57:12.306Z,0.00
2023-02-09T03:58:12.660Z,0.00
2023-02-09T03:59:13.010Z,0.00
2023-02-09T04:00:13.394Z,0.00
2023-02-09T04:01:13.599Z,0.00
2023-02-09T04:02:13.952Z,0.00
2023-02-09T04:03:14.211Z,0.00
2023-02-09T04:04:14.551Z,0.00
2023-02-09T04:05:14.982Z,0.00
2023-02-09T04:06:15.204Z,0.00
2023-02-09T04:07:15.521Z,0.00
2023-02-09T04:08:15.831Z,0.00
2023-02-09T04:09:16.142Z,0.00
2023-02-09T04:10:16.514Z,0.00
2023-02-09T04:11:16.700Z,0.00
2023-02-09T04:12:17.157Z,0.00
2023-02-09T04:13:17.352Z,0.00
2023-02-09T04:14:17.677Z,0.00
2023-02-09T04:15:18.035Z,0.00
2023-02-09T04:16:18.323Z,0.00
2023-02-09T04:17:18.534Z,0.00
2023-02-09T04:18:18.837Z,0.00
2023-02-09T04:19:19.233Z,0.00
2023-02-09T04:20:19.647Z,0.00
2023-02-09T04:21:19.662Z,1.00
2023-02-09T04:22:20.059Z,0.00
2023-02-09T04:23:21.184Z,0.00
2023-02-09T04:24:20.814Z,0.00
2023-02-09T04:25:20.997Z,0.00
2023-02-09T04:26:21.321Z,1.00
2023-02-09T04:27:21.660Z,0.00
2023-02-09T04:28:22.065Z,0.00
2023-02-09T04:29:22.353Z,0.00
2023-02-09T04:30:22.493Z,0.00
2023-02-09T04:31:22.876Z,0.00
2023-02-09T04:32:23.159Z,0.00
2023-02-09T04:33:23.289Z,1.00
2023-02-09T04:34:23.675Z,0.00
2023-02-09T04:35:23.964Z,0.00
2023-02-09T04:36:24.268Z,0.00
2023-02-09T04:37:24.472Z,0.00
2023-02-09T04:38:24.804Z,0.00
2023-02-09T04:39:25.117Z,0.00
2023-02-09T04:40:25.362Z,0.00
2023-02-09T04:41:25.579Z,0.00
2023-02-09T04:42:25.959Z,0.00
2023-02-09T04:43:26.359Z,0.00
2023-02-09T04:44:26.606Z,0.00
2023-02-09T04:45:26.979Z,0.00
2023-02-09T04:46:27.180Z,0.00
2023-02-09T04:47:27.902Z,0.00
2023-02-09T04:48:27.826Z,0.00
2023-02-09T04:49:28.122Z,0.00
2023-02-09T04:50:28.496Z,0.00
2023-02-09T04:51:28.717Z,0.00
2023-02-09T04:52:28.966Z,1.00
2023-02-09T04:53:29.168Z,0.00
2023-02-09T04:54:29.472Z,0.00
2023-02-09T04:55:29.734Z,0.00
2023-02-09T04:56:30.096Z,0.00
2023-02-09T04:57:30.303Z,0.00
2023-02-09T04:58:30.661Z,0.00
2023-02-09T04:59:30.867Z,0.00
2023-02-09T05:00:31.147Z,1.00
2023-02-09T05:01:31.559Z,0.00
2023-02-09T05:02:31.742Z,0.00
2023-02-09T05:03:32.025Z,0.00
2023-02-09T05:04:32.280Z,0.00
2023-02-09T05:05:32.613Z,0.00
2023-02-09T05:06:32.850Z,0.00
2023-02-09T05:07:33.190Z,0.00
2023-02-09T05:08:33.451Z,0.00
2023-02-09T05:09:33.778Z,0.00
2023-02-09T05:10:33.996Z,0.00
2023-02-09T05:11:34.296Z,0.00
2023-02-09T05:12:34.501Z,1.00
2023-02-09T05:13:34.848Z,0.00
2023-02-09T05:14:35.176Z,0.00
2023-02-09T05:15:35.317Z,1.00
2023-02-09T05:16:37.068Z,0.00
2023-02-09T05:17:35.961Z,0.00
2023-02-09T05:18:36.332Z,0.00
2023-02-09T05:19:36.646Z,0.00
2023-02-09T05:20:36.968Z,0.00
2023-02-09T05:21:37.297Z,0.00
2023-02-09T05:22:37.648Z,0.00
2023-02-09T05:23:37.845Z,0.00
2023-02-09T05:24:38.195Z,0.00
2023-02-09T05:25:38.406Z,0.00
2023-02-09T05:26:38.810Z,0.00
2023-02-09T05:27:39.042Z,0.00
2023-02-09T05:28:39.314Z,0.00
2023-02-09T05:29:39.978Z,0.00
2023-02-09T05:30:39.913Z,0.00
2023-02-09T05:31:40.251Z,1.00
2023-02-09T05:32:40.418Z,1.00
2023-02-09T05:33:40.734Z,0.00
2023-02-09T05:34:41.066Z,0.00
2023-02-09T05:35:41.975Z,0.00
2023-02-09T05:36:41.611Z,1.00
2023-02-09T05:37:42.016Z,0.00
2023-02-09T05:38:42.117Z,1.00
2023-02-09T05:39:42.422Z,0.00
2023-02-09T05:40:45.161Z,0.00
2023-02-09T05:41:44.785Z,1.00
2023-02-09T05:42:43.275Z,0.00
2023-02-09T05:43:43.928Z,0.00
2023-02-09T05:44:43.865Z,1.00
2023-02-09T05:45:44.219Z,0.00
2023-02-09T05:46:45.110Z,0.00
2023-02-09T05:47:44.749Z,0.00
2023-02-09T05:48:45.031Z,0.00
2023-02-09T05:49:45.245Z,0.00
2023-02-09T05:50:45.928Z,0.00
2023-02-09T05:51:45.862Z,0.00
2023-02-09T05:52:46.165Z,0.00
2023-02-09T05:53:46.355Z,0.00
2023-02-09T05:54:46.670Z,0.00
2023-02-09T05:55:47.023Z,0.00
2023-02-09T05:56:47.343Z,0.00
2023-02-09T05:57:47.648Z,0.00
2023-02-09T05:58:47.981Z,0.00
2023-02-09T05:59:48.291Z,0.00
2023-02-09T06:00:48.524Z,0.00
2023-02-09T06:01:48.812Z,0.00
2023-02-09T06:02:49.197Z,0.00
2023-02-09T06:03:49.354Z,1.00
2023-02-09T06:04:49.648Z,0.00
2023-02-09T06:05:49.959Z,0.00
2023-02-09T06:06:50.336Z,0.00
2023-02-09T06:07:50.649Z,0.00
2023-02-09T06:08:50.960Z,0.00
2023-02-09T06:09:51.180Z,0.00
2023-02-09T06:10:51.544Z,0.00
2023-02-09T06:11:51.683Z,1.00
2023-02-09T06:12:52.004Z,1.00
2023-02-09T06:13:52.153Z,1.00
2023-02-09T06:14:52.434Z,1.00
2023-02-09T06:15:52.735Z,0.00
2023-02-09T06:16:53.079Z,0.00
2023-02-09T06:17:53.251Z,1.00
2023-02-09T06:18:53.557Z,1.00
2023-02-09T06:19:53.838Z,0.00
2023-02-09T06:20:54.049Z,2.00
2023-02-09T06:21:54.318Z,1.00
2023-02-09T06:22:54.573Z,2.00
2023-02-09T06:23:54.927Z,1.00
2023-02-09T06:24:55.154Z,1.00
2023-02-09T06:25:55.414Z,2.00
2023-02-09T06:26:56.143Z,1.00
2023-02-09T06:27:56.056Z,2.00
2023-02-09T06:28:56.378Z,2.00
2023-02-09T06:29:56.596Z,2.00
2023-02-09T06:30:56.949Z,3.00
2023-02-09T06:31:57.191Z,3.00
2023-02-09T06:32:57.965Z,5.00
2023-02-09T06:33:57.691Z,4.00
2023-02-09T06:34:57.961Z,7.00
2023-02-09T06:35:58.190Z,8.00
2023-02-09T06:36:58.500Z,8.00
2023-02-09T06:37:58.786Z,12.00
2023-02-09T06:38:59.027Z,13.00
2023-02-09T06:39:59.367Z,15.00
2023-02-09T06:40:59.648Z,18.00
2023-02-09T06:42:00.144Z,18.00
2023-02-09T06:43:00.392Z,24.00
2023-02-09T06:44:00.505Z,24.00
2023-02-09T06:45:01.912Z,25.00
2023-02-09T06:46:01.243Z,35.00
2023-02-09T06:47:01.411Z,40.00
2023-02-09T06:48:01.619Z,42.00
2023-02-09T06:49:02.051Z,54.00
2023-02-09T06:50:02.192Z,48.00
2023-02-09T06:51:02.483Z,57.00
2023-02-09T06:52:02.758Z,62.00
2023-02-09T06:53:03.075Z,68.00
2023-02-09T06:54:03.287Z,74.00
2023-02-09T06:55:03.574Z,77.00
2023-02-09T06:56:03.803Z,83.00
2023-02-09T06:57:04.085Z,88.00
2023-02-09T06:58:04.361Z,93.00
2023-02-09T06:59:04.622Z,99.00
2023-02-09T07:00:04.873Z,106.00
2023-02-09T07:01:06.213Z,109.00
2023-02-09T07:02:05.475Z,119.00
2023-02-09T07:03:05.810Z,125.00
2023-02-09T07:04:05.970Z,130.00
2023-02-09T07:05:06.277Z,139.00
2023-02-09T07:06:06.549Z,144.00
2023-02-09T07:07:06.868Z,154.00
2023-02-09T07:08:07.144Z,161.00
2023-02-09T07:09:07.617Z,169.00
2023-02-09T07:10:07.707Z,179.00
2023-02-09T07:11:08.088Z,186.00
2023-02-09T07:12:08.391Z,193.00
2023-02-09T07:13:08.699Z,202.00
2023-02-09T07:14:09.039Z,209.00
2023-02-09T07:15:09.289Z,219.00
2023-02-09T07:16:09.645Z,230.00
2023-02-09T07:17:09.893Z,235.00
2023-02-09T07:18:10.204Z,250.00
2023-02-09T07:19:10.509Z,255.00
2023-02-09T07:20:10.730Z,264.00
2023-02-09T07:21:11.014Z,272.00
2023-02-09T07:22:11.266Z,284.00
2023-02-09T07:23:11.554Z,292.00
2023-02-09T07:24:11.863Z,308.00
2023-02-09T07:25:12.161Z,312.00
2023-02-09T07:26:12.409Z,324.00
2023-02-09T07:27:12.842Z,321.00
2023-02-09T07:28:13.005Z,329.00
2023-02-09T07:29:13.321Z,336.00
2023-02-09T07:30:13.566Z,327.00
2023-02-09T07:31:14.002Z,336.00
2023-02-09T07:32:14.149Z,334.00
2023-02-09T07:33:14.455Z,333.00
2023-02-09T07:34:14.670Z,322.00
2023-02-09T07:35:14.952Z,316.00
2023-02-09T07:36:15.220Z,291.00
2023-02-09T07:37:15.587Z,281.00
2023-02-09T07:38:15.844Z,271.00
2023-02-09T07:39:16.131Z,354.00
2023-02-09T07:40:16.372Z,466.00
2023-02-09T07:41:16.636Z,558.00
2023-02-09T07:42:16.957Z,586.00
2023-02-09T07:43:17.234Z,588.00
2023-02-09T07:44:17.522Z,583.00
2023-02-09T07:45:17.805Z,564.00
2023-02-09T07:46:18.105Z,571.00
2023-02-09T07:47:18.336Z,592.00
2023-02-09T07:48:18.601Z,591.00
2023-02-09T07:49:18.883Z,558.00
2023-02-09T07:50:20.128Z,525.00
2023-02-09T07:51:19.476Z,519.00
2023-02-09T07:52:19.765Z,536.00
2023-02-09T07:53:20.048Z,567.00
2023-02-09T07:54:20.298Z,591.00
2023-02-09T07:55:20.591Z,626.00
2023-02-09T07:56:20.828Z,635.00
2023-02-09T07:57:21.123Z,644.00
2023-02-09T07:58:21.450Z,668.00
2023-02-09T07:59:21.692Z,585.00
2023-02-09T08:00:21.999Z,634.00
2023-02-09T08:01:22.387Z,764.00
2023-02-09T08:02:22.481Z,865.00
2023-02-09T08:03:22.768Z,1019.00
2023-02-09T08:04:23.045Z,1235.00
2023-02-09T08:05:23.467Z,2344.00
2023-02-09T08:06:30.375Z,2488.00
2023-02-09T08:07:24.834Z,2574.00
2023-02-09T08:08:24.120Z,3354.00
2023-02-09T08:09:24.464Z,4089.00
2023-02-09T08:10:24.717Z,4000.00
2023-02-09T08:11:25.004Z,3994.00
2023-02-09T08:12:25.334Z,4057.00
2023-02-09T08:13:26.253Z,3746.00
2023-02-09T08:14:25.789Z,3507.00
2023-02-09T08:15:26.129Z,3166.00
2023-02-09T08:16:26.424Z,2937.00
2023-02-09T08:17:26.676Z,2331.00
2023-02-09T08:18:26.956Z,2427.00
2023-02-09T08:19:27.266Z,4419.00
2023-02-09T08:20:27.545Z,6611.00
2023-02-09T08:21:27.886Z,7722.00
2023-02-09T08:22:28.196Z,8256.00
2023-02-09T08:23:28.426Z,8303.00
2023-02-09T08:24:28.695Z,7206.00
2023-02-09T08:25:29.027Z,6263.00
2023-02-09T08:26:29.282Z,7275.00
2023-02-09T08:27:29.564Z,4787.00
2023-02-09T08:28:43.168Z,1727.00
2023-02-09T08:29:31.166Z,1097.00
2023-02-09T08:30:30.389Z,1177.00
2023-02-09T08:31:30.845Z,1134.00
2023-02-09T08:32:30.894Z,1095.00
2023-02-09T08:33:31.190Z,1106.00
2023-02-09T08:34:31.482Z,1194.00
2023-02-09T08:35:31.740Z,1167.00
2023-02-09T08:36:32.063Z,1493.00
2023-02-09T08:37:32.313Z,2007.00
2023-02-09T08:38:32.576Z,2273.00
2023-02-09T08:39:32.952Z,2679.00
2023-02-09T08:40:34.023Z,2424.00
2023-02-09T08:41:33.517Z,1796.00
2023-02-09T08:42:33.776Z,1613.00
2023-02-09T08:43:34.143Z,1371.00
2023-02-09T08:44:34.404Z,1231.00
2023-02-09T08:45:34.810Z,1247.00
2023-02-09T08:46:35.223Z,1182.00
2023-02-09T08:47:35.312Z,1238.00
2023-02-09T08:48:35.993Z,1338.00
2023-02-09T08:49:35.933Z,1372.00
2023-02-09T08:50:36.203Z,1337.00
2023-02-09T08:51:36.506Z,1313.00
2023-02-09T08:52:36.746Z,1316.00
2023-02-09T08:53:37.085Z,1333.00
2023-02-09T08:54:37.348Z,1346.00
2023-02-09T08:55:37.626Z,1387.00
2023-02-09T08:56:37.875Z,1364.00
2023-02-09T08:57:43.869Z,1334.00
2023-02-09T08:58:39.438Z,1392.00
2023-02-09T08:59:38.745Z,1462.00
2023-02-09T09:00:39.070Z,1447.00
2023-02-09T09:01:39.275Z,1452.00
2023-02-09T09:02:39.548Z,1504.00
2023-02-09T09:03:39.871Z,1569.00
2023-02-09T09:04:40.138Z,1562.00
2023-02-09T09:05:40.430Z,1606.00
2023-02-09T09:06:40.709Z,1607.00
2023-02-09T09:07:40.952Z,1614.00
2023-02-09T09:08:41.227Z,1623.00
2023-02-09T09:09:41.551Z,1639.00
2023-02-09T09:10:41.759Z,1661.00
2023-02-09T09:11:42.030Z,1742.00
2023-02-09T09:12:42.281Z,1695.00
2023-02-09T09:13:42.539Z,1684.00
2023-02-09T09:14:42.875Z,1673.00
2023-02-09T09:15:43.980Z,1677.00
2023-02-09T09:16:43.559Z,1699.00
2023-02-09T09:17:43.667Z,1725.00
2023-02-09T09:18:43.979Z,1742.00
2023-02-09T09:19:44.292Z,1753.00
2023-02-09T09:20:44.606Z,1788.00
2023-02-09T09:21:44.896Z,1818.00
2023-02-09T09:22:45.130Z,1817.00
2023-02-09T09:23:45.411Z,2057.00
2023-02-09T09:24:45.714Z,1852.00
2023-02-09T09:25:46.275Z,1895.00
2023-02-09T09:26:46.329Z,1855.00
2023-02-09T09:27:46.634Z,1945.00
2023-02-09T09:28:46.900Z,1935.00
2023-02-09T09:29:47.171Z,1921.00
2023-02-09T09:30:47.498Z,1955.00
2023-02-09T09:31:47.812Z,1972.00
2023-02-09T09:32:48.048Z,1998.00
2023-02-09T09:33:48.338Z,2019.00
2023-02-09T09:34:48.608Z,2028.00
2023-02-09T09:35:49.034Z,2071.00
2023-02-09T09:36:49.092Z,2117.00
2023-02-09T09:37:49.403Z,2119.00
2023-02-09T09:38:49.736Z,2112.00
2023-02-09T09:39:50.018Z,2124.00
2023-02-09T09:40:50.234Z,2149.00
2023-02-09T09:41:50.527Z,2140.00
2023-02-09T09:42:50.796Z,2199.00
2023-02-09T09:43:51.115Z,2199.00
2023-02-09T09:44:51.374Z,2197.00
2023-02-09T09:45:51.709Z,2202.00
2023-02-09T09:46:51.943Z,2200.00
2023-02-09T09:47:52.265Z,2223.00
2023-02-09T09:48:52.475Z,2235.00
2023-02-09T09:49:52.813Z,2192.00
2023-02-09T09:50:53.094Z,2461.00
2023-02-09T09:51:53.839Z,2343.00
2023-02-09T09:52:53.565Z,2391.00
2023-02-09T09:53:53.900Z,2409.00
2023-02-09T09:54:54.081Z,2416.00
2023-02-09T09:55:54.388Z,2408.00
2023-02-09T09:56:54.656Z,2429.00
2023-02-09T09:57:55.040Z,2435.00
2023-02-09T09:58:55.266Z,2444.00
2023-02-09T09:59:55.579Z,2443.00
2023-02-09T10:00:55.812Z,2439.00
2023-02-09T10:01:56.063Z,2453.00
2023-02-09T10:02:56.323Z,2504.00
2023-02-09T10:03:56.640Z,2651.00
2023-02-09T10:04:56.940Z,2500.00
2023-02-09T10:05:57.208Z,2476.00
2023-02-09T10:06:57.516Z,2660.00
2023-02-09T10:07:57.762Z,2455.00
2023-02-09T10:08:58.027Z,2683.00
2023-02-09T10:09:58.348Z,2514.00
2023-02-09T10:10:58.598Z,2488.00
2023-02-09T10:11:58.889Z,2493.00
2023-02-09T10:12:59.204Z,2503.00
2023-02-09T10:13:59.529Z,2545.00
2023-02-09T10:14:59.713Z,2583.00
2023-02-09T10:15:59.985Z,2580.00
2023-02-09T10:17:00.376Z,2603.00
2023-02-09T10:18:00.707Z,2645.00
2023-02-09T10:19:00.902Z,2725.00
2023-02-09T10:20:02.076Z,2692.00
2023-02-09T10:21:01.482Z,2666.00
2023-02-09T10:22:01.806Z,2700.00
2023-02-09T10:23:02.149Z,2713.00
2023-02-09T10:24:02.384Z,2838.00
2023-02-09T10:25:02.650Z,2688.00
2023-02-09T10:26:02.992Z,2747.00
2023-02-09T10:27:03.204Z,2767.00
2023-02-09T10:28:03.536Z,2861.00
2023-02-09T10:29:03.817Z,2707.00
2023-02-09T10:30:04.145Z,2762.00
2023-02-09T10:31:04.604Z,2767.00
2023-02-09T10:32:04.734Z,2850.00
2023-02-09T10:33:04.993Z,2846.00
2023-02-09T10:34:05.288Z,2858.00
2023-02-09T10:35:05.568Z,2885.00
2023-02-09T10:36:05.842Z,2846.00
2023-02-09T10:37:06.131Z,2800.00
2023-02-09T10:38:06.461Z,2928.00
2023-02-09T10:39:06.692Z,2984.00
2023-02-09T10:40:06.984Z,3009.00
2023-02-09T10:41:07.264Z,2955.00
2023-02-09T10:42:07.569Z,3031.00
2023-02-09T10:43:07.826Z,2904.00
2023-02-09T10:44:08.096Z,2666.00
2023-02-09T10:45:08.395Z,2736.00
2023-02-09T10:46:08.777Z,3224.00
2023-02-09T10:47:08.909Z,3551.00
2023-02-09T10:48:09.201Z,3885.00
2023-02-09T10:49:09.462Z,3948.00
2023-02-09T10:50:09.784Z,3736.00
2023-02-09T10:51:10.101Z,3891.00
2023-02-09T10:52:10.430Z,3941.00
2023-02-09T10:53:10.751Z,4104.00
2023-02-09T10:54:10.985Z,4311.00
2023-02-09T10:55:11.233Z,4533.00
2023-02-09T10:56:11.546Z,4140.00
2023-02-09T10:57:11.875Z,4066.00
2023-02-09T10:58:12.124Z,4602.00
2023-02-09T10:59:12.426Z,5483.00
2023-02-09T11:00:12.722Z,8377.00
2023-02-09T11:01:13.104Z,8400.00
2023-02-09T11:02:14.143Z,9694.00
2023-02-09T11:03:13.541Z,10889.00
2023-02-09T11:04:13.849Z,76164.00
2023-02-09T11:05:14.168Z,15553.00
2023-02-09T11:06:14.487Z,7262.00
2023-02-09T11:07:14.820Z,81078.00
2023-02-09T11:08:15.086Z,76746.00
2023-02-09T11:09:15.407Z,76419.00
2023-02-09T11:10:15.708Z,74697.00
2023-02-09T11:11:16.129Z,75052.00
2023-02-09T11:12:16.266Z,14735.00
2023-02-09T11:13:16.563Z,14907.00
2023-02-09T11:14:16.948Z,21359.00
2023-02-09T11:15:17.158Z,19904.00
2023-02-09T11:16:17.546Z,75098.00
2023-02-09T11:17:17.679Z,75156.00
2023-02-09T11:18:18.294Z,19883.00
2023-02-09T11:19:19.348Z,12428.00
2023-02-09T11:20:18.595Z,7272.00
2023-02-09T11:21:18.856Z,5672.00
2023-02-09T11:22:19.207Z,5434.00
2023-02-09T11:23:19.491Z,6494.00
2023-02-09T11:24:19.723Z,10726.00
2023-02-09T11:25:20.016Z,11802.00
2023-02-09T11:26:20.334Z,14005.00
2023-02-09T11:27:21.813Z,6977.00
2023-02-09T11:28:20.932Z,79400.00
2023-02-09T11:29:21.196Z,79789.00
2023-02-09T11:30:21.557Z,78071.00
2023-02-09T11:31:22.021Z,76861.00
2023-02-09T11:32:22.176Z,10985.00
2023-02-09T11:33:22.421Z,76220.00
2023-02-09T11:34:24.841Z,15412.00
2023-02-09T11:35:23.092Z,77890.00
2023-02-09T11:36:23.361Z,80674.00
2023-02-09T11:37:23.627Z,77365.00
2023-02-09T11:38:24.350Z,80918.00
2023-02-09T11:39:24.177Z,79065.00
2023-02-09T11:40:24.531Z,78253.00
2023-02-09T11:41:24.741Z,74106.00
2023-02-09T11:42:25.007Z,9649.00
2023-02-09T11:43:25.301Z,77054.00
2023-02-09T11:44:25.554Z,78490.00
2023-02-09T11:45:25.868Z,80967.00
2023-02-09T11:46:26.204Z,74330.00
2023-02-09T11:47:26.459Z,73831.00
2023-02-09T11:48:26.762Z,77379.00
2023-02-09T11:49:27.051Z,77341.00
2023-02-09T11:50:27.328Z,73810.00
2023-02-09T11:51:27.627Z,79320.00
2023-02-09T11:52:27.902Z,13498.00
2023-02-09T11:53:28.212Z,77405.00
2023-02-09T11:54:28.482Z,81167.00
2023-02-09T11:55:28.773Z,78132.00
2023-02-09T11:56:29.106Z,77212.00
2023-02-09T11:57:29.313Z,75322.00
2023-02-09T11:58:29.577Z,73864.00
2023-02-09T11:59:29.855Z,73748.00
2023-02-09T12:00:30.152Z,75947.00
2023-02-09T12:01:30.423Z,78063.00
2023-02-09T12:02:30.707Z,74807.00
2023-02-09T12:03:30.963Z,76144.00
2023-02-09T12:04:31.254Z,80695.00
2023-02-09T12:05:31.536Z,77542.00
2023-02-09T12:06:31.942Z,80396.00
2023-02-09T12:07:33.148Z,76158.00
2023-02-09T12:08:32.330Z,11775.00
2023-02-09T12:09:32.672Z,78910.00
2023-02-09T12:10:32.944Z,81056.00
2023-02-09T12:11:33.224Z,81607.00
2023-02-09T12:12:33.561Z,81663.00
2023-02-09T12:13:33.845Z,79876.00
2023-02-09T12:14:34.101Z,80862.00
2023-02-09T12:15:34.421Z,75047.00
2023-02-09T12:16:34.863Z,74395.00
2023-02-09T12:17:34.989Z,74495.00
2023-02-09T12:18:35.349Z,74393.00
2023-02-09T12:19:35.560Z,74657.00
2023-02-09T12:20:35.862Z,74722.00
2023-02-09T12:21:36.157Z,74447.00
2023-02-09T12:22:36.459Z,74386.00
2023-02-09T12:23:36.762Z,74415.00
2023-02-09T12:24:37.056Z,74507.00
2023-02-09T12:25:37.382Z,74487.00
2023-02-09T12:26:37.707Z,75676.00
2023-02-09T12:27:37.965Z,80266.00
2023-02-09T12:28:38.301Z,80944.00
2023-02-09T12:29:38.511Z,79648.00
2023-02-09T12:30:38.818Z,75235.00
2023-02-09T12:31:39.639Z,19894.00
2023-02-09T12:32:39.416Z,11585.00
2023-02-09T12:33:39.776Z,10532.00
2023-02-09T12:34:40.058Z,9081.00
2023-02-09T12:35:40.309Z,77028.00
2023-02-09T12:36:40.623Z,79605.00
2023-02-09T12:37:40.880Z,82139.00
2023-02-09T12:38:41.159Z,81030.00
2023-02-09T12:39:41.461Z,80506.00
2023-02-09T12:40:41.729Z,80053.00
2023-02-09T12:41:42.047Z,77006.00
2023-02-09T12:42:42.374Z,79927.00
2023-02-09T12:43:42.607Z,79460.00
2023-02-09T12:44:42.901Z,81146.00
2023-02-09T12:45:43.190Z,80659.00
2023-02-09T12:46:43.489Z,74804.00
2023-02-09T12:47:43.797Z,17900.00
2023-02-09T12:48:44.115Z,11504.00